createdAt,value
2023-03-13T00:00:05.169Z,8.50
2023-03-13T00:03:09.433Z,8.40
2023-03-13T00:06:12.877Z,8.50
2023-03-13T00:09:17.157Z,8.50
2023-03-13T00:12:20.119Z,8.50
2023-03-13T00:15:23.065Z,8.50
2023-03-13T00:18:27.316Z,8.50
2023-03-13T00:21:30.873Z,8.50
2023-03-13T00:24:34.015Z,8.50
2023-03-13T00:27:36.988Z,8.50
2023-03-13T00:30:40.048Z,8.50
2023-03-13T00:33:45.742Z,8.50
2023-03-13T00:36:48.691Z,8.50
2023-03-13T00:39:51.692Z,8.50
2023-03-13T00:42:54.632Z,8.60
2023-03-13T00:45:57.755Z,8.50
2023-03-13T00:49:02.148Z,8.60
2023-03-13T00:52:05.303Z,8.60
2023-03-13T00:55:09.176Z,8.60
2023-03-13T00:58:12.123Z,8.70
2023-03-13T01:01:16.899Z,8.70
2023-03-13T01:04:21.148Z,8.70
2023-03-13T01:07:24.083Z,8.80
2023-03-13T01:10:27.022Z,8.80
2023-03-13T01:13:32.858Z,8.80
2023-03-13T01:16:37.775Z,8.90
2023-03-13T01:19:42.181Z,8.90
2023-03-13T01:22:45.239Z,8.90
2023-03-13T01:25:48.184Z,8.90
2023-03-13T01:28:51.474Z,8.90
2023-03-13T01:31:54.427Z,8.90
2023-03-13T01:34:58.747Z,8.90
2023-03-13T01:38:01.739Z,9.00
2023-03-13T01:41:05.111Z,9.00
2023-03-13T01:44:21.280Z,9.10
2023-03-13T01:47:24.643Z,9.10
2023-03-13T01:50:29.012Z,9.10
2023-03-13T01:53:35.385Z,9.10
2023-03-13T01:56:42.675Z,9.10
2023-03-13T01:59:49.001Z,9.10
2023-03-13T02:02:54.246Z,9.10
2023-03-13T02:06:00.803Z,9.10
2023-03-13T02:09:08.777Z,9.10
2023-03-13T02:12:15.693Z,9.10
2023-03-13T02:15:20.776Z,9.10
2023-03-13T02:18:25.935Z,9.10
2023-03-13T02:21:42.921Z,9.10
2023-03-13T02:24:52.230Z,9.10
2023-03-13T02:28:01.371Z,9.10
2023-03-13T02:31:04.450Z,9.10
2023-03-13T02:34:07.714Z,9.10
2023-03-13T02:37:12.944Z,9.10
2023-03-13T02:40:22.331Z,9.10
2023-03-13T02:43:31.363Z,9.00
2023-03-13T02:46:46.044Z,8.90
2023-03-13T02:49:50.932Z,9.00
2023-03-13T02:52:59.436Z,8.90
2023-03-13T02:56:02.917Z,8.90
2023-03-13T02:59:07.804Z,8.80
2023-03-13T03:02:10.748Z,8.70
2023-03-13T03:05:14.497Z,8.70
2023-03-13T03:08:17.452Z,8.70
2023-03-13T03:11:20.413Z,8.60
2023-03-13T03:14:24.714Z,8.50
2023-03-13T03:17:27.670Z,8.50
2023-03-13T03:20:30.606Z,8.50
2023-03-13T03:23:34.611Z,8.50
2023-03-13T03:26:37.789Z,8.50
2023-03-13T03:29:42.091Z,8.50
2023-03-13T03:32:45.194Z,8.50
2023-03-13T03:35:48.184Z,8.50
2023-03-13T03:38:51.483Z,8.50
2023-03-13T03:41:54.425Z,8.50
2023-03-13T03:44:58.679Z,8.50
2023-03-13T03:48:01.667Z,8.50
2023-03-13T03:51:05.023Z,8.50
2023-03-13T03:54:07.972Z,8.50
2023-03-13T03:57:10.912Z,8.40
2023-03-13T04:00:16.207Z,8.40
2023-03-13T04:03:19.288Z,8.40
2023-03-13T04:06:22.240Z,8.40
2023-03-13T04:09:25.340Z,8.30
2023-03-13T04:12:28.271Z,8.30
2023-03-13T04:15:32.553Z,8.30
2023-03-13T04:18:35.541Z,8.30
2023-03-13T04:21:39.652Z,8.30
2023-03-13T04:24:42.631Z,8.30
2023-03-13T04:27:45.636Z,8.30
2023-03-13T04:30:50.321Z,8.30
2023-03-13T04:33:53.308Z,8.30
2023-03-13T04:36:56.225Z,8.30
2023-03-13T04:39:59.159Z,8.20
2023-03-13T04:43:02.076Z,8.20
2023-03-13T04:46:06.477Z,8.20
2023-03-13T04:49:09.457Z,8.20
2023-03-13T04:52:13.060Z,8.10
2023-03-13T04:55:16.147Z,8.10
2023-03-13T04:58:19.098Z,8.10
2023-03-13T05:01:23.388Z,8.10
2023-03-13T05:04:26.406Z,8.10
2023-03-13T05:07:29.378Z,8.00
2023-03-13T05:10:32.617Z,8.10
2023-03-13T05:13:35.554Z,8.10
2023-03-13T05:16:40.011Z,8.10
2023-03-13T05:19:42.957Z,8.10
2023-03-13T05:22:45.879Z,8.20
2023-03-13T05:25:48.844Z,8.10
2023-03-13T05:28:51.785Z,8.10
2023-03-13T05:31:56.047Z,8.10
2023-03-13T05:34:59.000Z,8.10
2023-03-13T05:38:01.989Z,8.10
2023-03-13T05:41:05.173Z,8.20
2023-03-13T05:44:08.104Z,8.20
2023-03-13T05:47:12.343Z,8.20
2023-03-13T05:50:15.296Z,8.20
2023-03-13T05:53:18.245Z,8.20
2023-03-13T05:56:21.190Z,8.20
2023-03-13T05:59:24.116Z,8.30
2023-03-13T06:02:28.365Z,8.30
2023-03-13T06:05:31.314Z,8.30
2023-03-13T06:08:34.278Z,8.30
2023-03-13T06:11:37.261Z,8.40
2023-03-13T06:14:40.197Z,8.40
2023-03-13T06:17:44.453Z,8.40
2023-03-13T06:20:47.400Z,8.40
2023-03-13T06:23:50.347Z,8.40
2023-03-13T06:26:53.311Z,8.50
2023-03-13T06:29:56.268Z,8.60
2023-03-13T06:33:00.690Z,8.60
2023-03-13T06:36:05.225Z,8.80
2023-03-13T06:39:08.333Z,8.90
2023-03-13T06:42:11.266Z,9.00
2023-03-13T06:45:14.257Z,9.00
2023-03-13T06:48:18.962Z,9.10
2023-03-13T06:51:23.292Z,9.10
2023-03-13T06:54:26.462Z,9.20
2023-03-13T06:57:29.372Z,9.20
2023-03-13T07:00:32.369Z,9.30
2023-03-13T07:03:37.174Z,9.30
2023-03-13T07:06:40.184Z,9.30
2023-03-13T07:09:43.108Z,9.40
2023-03-13T07:12:46.039Z,9.40
2023-03-13T07:15:49.371Z,9.50
2023-03-13T07:18:53.673Z,9.50
2023-03-13T07:21:57.014Z,9.60
2023-03-13T07:24:59.972Z,9.60
2023-03-13T07:28:02.921Z,9.70
2023-03-13T07:31:07.951Z,9.70
2023-03-13T07:34:13.327Z,9.70
2023-03-13T07:37:17.430Z,9.80
2023-03-13T07:40:20.594Z,9.80
2023-03-13T07:43:24.804Z,9.80
2023-03-13T07:46:27.806Z,9.90
2023-03-13T07:49:32.132Z,10.00
2023-03-13T07:52:35.084Z,10.00
2023-03-13T07:55:38.096Z,10.10
2023-03-13T07:58:42.665Z,10.10
2023-03-13T08:01:45.710Z,10.20
2023-03-13T08:04:53.158Z,10.20
2023-03-13T08:07:56.112Z,10.30
2023-03-13T08:11:02.609Z,10.40
2023-03-13T08:14:05.608Z,10.50
2023-03-13T08:17:08.645Z,10.50
2023-03-13T08:20:13.662Z,10.50
2023-03-13T08:23:16.598Z,10.60
2023-03-13T08:26:21.202Z,10.70
2023-03-13T08:29:24.170Z,10.80
2023-03-13T08:32:27.203Z,10.80
2023-03-13T08:35:31.661Z,10.90
2023-03-13T08:38:34.666Z,10.90
2023-03-13T08:41:40.581Z,10.90
2023-03-13T08:44:43.560Z,11.00
2023-03-13T08:47:46.592Z,11.10
2023-03-13T08:51:01.504Z,11.10
2023-03-13T08:54:05.236Z,11.10
2023-03-13T08:57:08.245Z,11.10
2023-03-13T09:00:14.050Z,11.20
2023-03-13T09:03:17.572Z,11.20
2023-03-13T09:06:22.278Z,11.30
2023-03-13T09:09:25.275Z,11.30
2023-03-13T09:12:31.386Z,11.40
2023-03-13T09:15:34.668Z,11.40
2023-03-13T09:18:38.549Z,11.40
2023-03-13T09:21:42.828Z,11.50
2023-03-13T09:24:45.780Z,11.50
2023-03-13T09:27:48.755Z,11.60
2023-03-13T09:30:51.743Z,11.60
2023-03-13T09:33:55.115Z,11.70
2023-03-13T09:36:59.408Z,11.70
2023-03-13T09:40:02.343Z,11.70
2023-03-13T09:43:05.470Z,11.80
2023-03-13T09:46:16.750Z,11.80
2023-03-13T09:49:32.707Z,11.90
2023-03-13T09:52:40.910Z,11.90
2023-03-13T09:55:46.570Z,11.90
2023-03-13T09:58:54.852Z,12.00
2023-03-13T10:02:01.508Z,12.00
2023-03-13T10:05:13.274Z,12.10
2023-03-13T10:08:19.941Z,12.10
2023-03-13T10:11:28.723Z,12.10
2023-03-13T10:14:37.584Z,12.20
2023-03-13T10:17:41.324Z,12.20
2023-03-13T10:20:46.744Z,12.20
2023-03-13T10:23:56.778Z,12.20
2023-03-13T10:26:59.764Z,12.30
2023-03-13T10:30:02.730Z,12.40
2023-03-13T10:33:20.947Z,12.40
2023-03-13T10:36:24.437Z,12.40
2023-03-13T10:39:30.533Z,12.70
2023-03-13T10:42:39.990Z,12.90
2023-03-13T10:45:42.924Z,13.30
2023-03-13T10:48:45.900Z,13.50
2023-03-13T10:51:50.673Z,14.10
2023-03-13T10:55:00.436Z,14.60
2023-03-13T10:58:06.302Z,14.70
2023-03-13T11:01:22.713Z,14.60
2023-03-13T11:04:32.175Z,14.30
2023-03-13T11:07:37.958Z,14.00
2023-03-13T11:10:54.659Z,13.80
2023-03-13T11:14:09.228Z,13.60
2023-03-13T11:17:21.980Z,13.50
2023-03-13T11:20:28.048Z,13.50
2023-03-13T11:23:35.337Z,13.70
2023-03-13T11:26:55.172Z,14.20
2023-03-13T11:30:17.919Z,15.00
2023-03-13T11:33:36.495Z,15.50
2023-03-13T11:36:47.789Z,15.80
2023-03-13T11:40:02.065Z,16.60
2023-03-13T11:43:25.472Z,17.00
2023-03-13T11:46:39.737Z,16.90
2023-03-13T11:50:01.369Z,16.70
2023-03-13T11:53:18.800Z,16.30
2023-03-13T11:56:25.762Z,16.00
2023-03-13T11:59:40.525Z,15.70
2023-03-13T12:02:48.368Z,16.20
2023-03-13T12:05:55.202Z,17.30
2023-03-13T12:09:04.967Z,18.80
2023-03-13T12:12:18.151Z,18.70
2023-03-13T12:15:26.365Z,18.30
2023-03-13T12:18:34.006Z,17.60
2023-03-13T12:21:43.194Z,18.00
2023-03-13T12:24:52.656Z,18.80
2023-03-13T12:28:02.277Z,19.10
2023-03-13T12:31:23.066Z,18.90
2023-03-13T12:34:31.879Z,18.60
2023-03-13T12:37:44.694Z,18.70
2023-03-13T12:40:54.115Z,18.50
2023-03-13T12:44:08.265Z,18.10
2023-03-13T12:47:19.094Z,17.90
2023-03-13T12:50:34.287Z,18.30
2023-03-13T12:53:52.120Z,18.70
2023-03-13T12:57:10.621Z,18.40
2023-03-13T13:00:17.620Z,18.20
2023-03-13T13:03:30.769Z,17.80
2023-03-13T13:06:52.969Z,17.40
2023-03-13T13:10:15.522Z,17.40
2023-03-13T13:13:27.326Z,17.30
2023-03-13T13:16:32.269Z,17.40
2023-03-13T13:19:47.949Z,17.80
2023-03-13T13:22:52.687Z,17.60
2023-03-13T13:25:57.511Z,17.40
2023-03-13T13:29:02.184Z,17.30
2023-03-13T13:32:07.106Z,17.50
2023-03-13T13:35:32.587Z,17.90
2023-03-13T13:38:40.356Z,18.30
2023-03-13T13:41:43.670Z,18.40
2023-03-13T13:44:59.667Z,18.60
2023-03-13T13:48:17.568Z,18.80
2023-03-13T13:51:25.390Z,18.50
2023-03-13T13:54:54.952Z,18.20
2023-03-13T13:58:04.149Z,17.80
2023-03-13T14:01:11.347Z,17.70
2023-03-13T14:04:17.821Z,17.70
2023-03-13T14:07:29.041Z,17.60
2023-03-13T14:10:38.050Z,17.50
2023-03-13T14:13:41.412Z,17.60
2023-03-13T14:16:46.318Z,17.50
2023-03-13T14:19:50.430Z,17.60
2023-03-13T14:22:56.163Z,17.50
2023-03-13T14:25:59.176Z,17.40
2023-03-13T14:29:06.657Z,17.40
2023-03-13T14:32:11.165Z,17.40
2023-03-13T14:35:17.053Z,17.40
2023-03-13T14:38:23.460Z,17.30
2023-03-13T14:41:31.924Z,17.30
2023-03-13T14:44:35.880Z,17.30
2023-03-13T14:47:38.909Z,17.30
2023-03-13T14:50:42.050Z,17.30
2023-03-13T14:53:57.046Z,17.30
2023-03-13T14:57:15.970Z,17.30
2023-03-13T15:00:35.368Z,17.30
2023-03-13T15:03:44.566Z,17.30
2023-03-13T15:06:48.012Z,17.20
2023-03-13T15:09:52.709Z,17.20
2023-03-13T15:12:55.687Z,17.20
2023-03-13T15:15:59.136Z,17.20
2023-03-13T15:19:02.082Z,17.20
2023-03-13T15:22:05.087Z,17.20
2023-03-13T15:25:17.572Z,17.20
2023-03-13T15:28:22.361Z,17.20
2023-03-13T15:31:29.705Z,17.10
2023-03-13T15:34:34.019Z,17.10
2023-03-13T15:37:37.102Z,17.10
2023-03-13T15:40:41.464Z,17.10
2023-03-13T15:43:44.655Z,17.10
2023-03-13T15:46:48.041Z,17.00
2023-03-13T15:49:51.009Z,17.00
2023-03-13T15:52:54.213Z,17.00
2023-03-13T15:56:00.152Z,16.90
2023-03-13T15:59:03.354Z,17.00
2023-03-13T16:02:14.125Z,17.00
2023-03-13T16:05:17.427Z,17.00
2023-03-13T16:08:34.854Z,16.90
2023-03-13T16:11:40.070Z,16.90
2023-03-13T16:14:43.074Z,16.90
2023-03-13T16:17:46.074Z,16.90
2023-03-13T16:20:49.947Z,16.90
2023-03-13T16:23:52.996Z,16.90
2023-03-13T16:26:57.366Z,16.80
2023-03-13T16:30:01.838Z,16.80
2023-03-13T16:33:04.979Z,16.80
2023-03-13T16:36:15.149Z,16.80
2023-03-13T16:39:18.757Z,16.70
2023-03-13T16:42:23.040Z,16.60
2023-03-13T16:45:26.349Z,16.60
2023-03-13T16:48:29.289Z,16.50
2023-03-13T16:51:32.589Z,16.50
2023-03-13T16:54:35.532Z,16.50
2023-03-13T16:57:40.037Z,16.40
2023-03-13T17:00:45.513Z,16.40
2023-03-13T17:03:54.447Z,16.30
2023-03-13T17:06:57.901Z,16.30
2023-03-13T17:10:00.991Z,16.20
2023-03-13T17:13:06.628Z,16.10
2023-03-13T17:16:15.115Z,16.10
2023-03-13T17:19:18.426Z,16.10
2023-03-13T17:22:21.502Z,16.10
2023-03-13T17:25:25.194Z,16.10
2023-03-13T17:28:29.517Z,16.00
2023-03-13T17:31:37.244Z,16.00
2023-03-13T17:34:41.281Z,16.00
2023-03-13T17:37:44.445Z,16.00
2023-03-13T17:40:47.469Z,15.90
2023-03-13T17:43:52.183Z,15.90
2023-03-13T17:46:55.227Z,15.90
2023-03-13T17:49:58.268Z,15.80
2023-03-13T17:53:01.277Z,15.80
2023-03-13T17:56:04.473Z,15.70
2023-03-13T17:59:14.062Z,15.70
2023-03-13T18:02:19.149Z,15.60
2023-03-13T18:05:22.735Z,15.60
2023-03-13T18:08:25.798Z,15.60
2023-03-13T18:11:28.783Z,15.60
2023-03-13T18:14:35.973Z,15.50
2023-03-13T18:17:39.200Z,15.50
2023-03-13T18:20:42.155Z,15.30
2023-03-13T18:23:45.250Z,15.20
2023-03-13T18:26:49.591Z,15.20
2023-03-13T18:29:53.861Z,15.10
2023-03-13T18:32:56.890Z,15.10
2023-03-13T18:35:59.870Z,15.00
2023-03-13T18:39:04.341Z,14.90
2023-03-13T18:42:10.469Z,14.80
2023-03-13T18:45:17.856Z,14.80
2023-03-13T18:48:20.784Z,14.80
2023-03-13T18:51:26.088Z,14.80
2023-03-13T18:54:29.030Z,14.70
2023-03-13T18:57:32.014Z,14.60
2023-03-13T19:00:36.645Z,14.50
2023-03-13T19:03:39.660Z,14.40
2023-03-13T19:06:43.008Z,14.40
2023-03-13T19:09:47.169Z,14.30
2023-03-13T19:12:50.536Z,14.20
2023-03-13T19:15:55.122Z,14.10
2023-03-13T19:18:58.905Z,14.10
2023-03-13T19:22:02.024Z,14.00
2023-03-13T19:25:05.393Z,14.00
2023-03-13T19:28:10.471Z,14.00
2023-03-13T19:31:15.941Z,14.00
2023-03-13T19:34:20.475Z,14.00
2023-03-13T19:37:23.425Z,13.90
2023-03-13T19:40:28.681Z,13.90
2023-03-13T19:43:31.628Z,13.90
2023-03-13T19:46:37.626Z,13.80
2023-03-13T19:49:40.561Z,13.80
2023-03-13T19:52:45.349Z,13.80
2023-03-13T19:55:48.341Z,13.70
2023-03-13T19:58:53.103Z,13.70
2023-03-13T20:01:57.554Z,13.60
2023-03-13T20:05:00.579Z,13.50
2023-03-13T20:08:03.549Z,13.40
2023-03-13T20:11:07.750Z,13.30
2023-03-13T20:14:11.309Z,13.20
2023-03-13T20:17:15.571Z,13.10
2023-03-13T20:20:19.073Z,13.10
2023-03-13T20:23:22.114Z,13.00
2023-03-13T20:26:26.223Z,13.00
2023-03-13T20:29:29.467Z,12.90
2023-03-13T20:32:34.188Z,12.90
2023-03-13T20:35:37.534Z,12.90
2023-03-13T20:38:41.599Z,12.90
2023-03-13T20:41:44.535Z,12.90
2023-03-13T20:44:47.506Z,12.90
2023-03-13T20:47:51.790Z,12.90
2023-03-13T20:50:56.811Z,12.90
2023-03-13T20:54:00.037Z,12.90
2023-03-13T20:57:04.352Z,12.90
2023-03-13T21:00:09.572Z,12.90
2023-03-13T21:03:15.122Z,12.80
2023-03-13T21:06:19.348Z,12.80
2023-03-13T21:09:22.313Z,12.70
2023-03-13T21:12:25.374Z,12.70
2023-03-13T21:15:28.381Z,12.70
2023-03-13T21:18:32.656Z,12.70
2023-03-13T21:21:35.629Z,12.70
2023-03-13T21:24:39.644Z,12.60
2023-03-13T21:27:43.710Z,12.60
2023-03-13T21:30:46.703Z,12.60
2023-03-13T21:33:51.131Z,12.60
2023-03-13T21:36:54.457Z,12.60
2023-03-13T21:39:57.669Z,12.60
2023-03-13T21:43:00.585Z,12.60
2023-03-13T21:46:03.924Z,12.70
2023-03-13T21:49:08.252Z,12.70
2023-03-13T21:52:11.241Z,12.60
2023-03-13T21:55:14.197Z,12.70
2023-03-13T21:58:17.449Z,12.70
2023-03-13T22:01:20.420Z,12.70
2023-03-13T22:04:24.738Z,12.70
2023-03-13T22:07:27.725Z,12.80
2023-03-13T22:10:30.677Z,12.90
2023-03-13T22:13:33.628Z,12.80
2023-03-13T22:16:36.617Z,12.80
2023-03-13T22:19:40.873Z,12.90
2023-03-13T22:22:43.831Z,12.90
2023-03-13T22:25:48.018Z,12.90
2023-03-13T22:28:51.037Z,12.90
2023-03-13T22:31:53.980Z,12.80
2023-03-13T22:34:58.313Z,12.90
2023-03-13T22:38:01.287Z,12.90
2023-03-13T22:41:05.972Z,12.90
2023-03-13T22:44:08.915Z,12.90
2023-03-13T22:47:11.858Z,12.90
2023-03-13T22:50:16.483Z,12.80
2023-03-13T22:53:19.409Z,12.80
2023-03-13T22:56:22.443Z,12.90
2023-03-13T22:59:25.401Z,12.90
2023-03-13T23:02:29.213Z,12.80
2023-03-13T23:05:33.475Z,12.80
2023-03-13T23:08:36.820Z,12.80
2023-03-13T23:11:39.996Z,12.80
2023-03-13T23:14:42.982Z,12.70
2023-03-13T23:17:46.104Z,12.70
2023-03-13T23:20:50.371Z,12.60
2023-03-13T23:23:55.161Z,12.60
2023-03-13T23:26:58.140Z,12.50
2023-03-13T23:30:04.037Z,12.40
2023-03-13T23:33:07.081Z,12.40
2023-03-13T23:36:13.986Z,12.40
2023-03-13T23:39:17.572Z,12.40
2023-03-13T23:42:20.540Z,12.40
2023-03-13T23:45:23.453Z,12.30
2023-03-13T23:48:26.415Z,12.20
2023-03-13T23:51:30.810Z,12.20
2023-03-13T23:54:33.911Z,12.20
2023-03-13T23:57:38.281Z,12.10
